createdAt,value
2019-03-24T00:00:28.592Z,44.70
2019-03-24T00:02:57.358Z,45.53
2019-03-24T00:05:25.801Z,46.67
2019-03-24T00:07:56.790Z,45.17
2019-03-24T00:10:24.676Z,46.10
2019-03-24T00:12:53.144Z,48.47
2019-03-24T00:15:26.155Z,46.50
2019-03-24T00:17:51.736Z,46.70
2019-03-24T00:20:20.164Z,47.70
2019-03-24T00:22:48.840Z,47.73
2019-03-24T00:25:17.303Z,47.97
2019-03-24T00:27:45.731Z,47.07
2019-03-24T00:30:14.322Z,46.67
2019-03-24T00:32:42.951Z,46.27
2019-03-24T00:35:11.542Z,46.23
2019-03-24T00:37:40.497Z,47.20
2019-03-24T00:40:09.470Z,48.20
2019-03-24T00:42:37.955Z,51.43
2019-03-24T00:45:07.901Z,50.47
2019-03-24T00:47:36.324Z,49.53
2019-03-24T00:50:06.669Z,48.60
2019-03-24T00:52:35.157Z,49.20
2019-03-24T00:55:04.419Z,49.70
2019-03-24T00:57:32.845Z,50.37
2019-03-24T01:00:01.264Z,48.90
2019-03-24T01:02:29.692Z,46.50
2019-03-24T01:04:58.127Z,47.87
2019-03-24T01:07:26.784Z,44.20
2019-03-24T01:09:55.248Z,42.23
2019-03-24T01:12:23.672Z,44.13
2019-03-24T01:14:52.113Z,43.67
2019-03-24T01:17:20.532Z,49.03
2019-03-24T01:19:48.959Z,47.60
2019-03-24T01:22:17.384Z,47.93
2019-03-24T01:24:46.148Z,45.63
2019-03-24T01:27:14.572Z,46.93
2019-03-24T01:29:43.001Z,43.47
2019-03-24T01:32:11.420Z,42.10
2019-03-24T01:34:39.843Z,43.37
2019-03-24T01:37:08.268Z,42.33
2019-03-24T01:39:36.688Z,42.43
2019-03-24T01:42:05.187Z,43.93
2019-03-24T01:44:33.608Z,47.13
2019-03-24T01:47:02.033Z,46.03
2019-03-24T01:49:30.456Z,44.00
2019-03-24T01:51:58.884Z,44.50
2019-03-24T01:54:27.300Z,44.40
2019-03-24T01:56:55.728Z,45.17
2019-03-24T01:59:24.166Z,43.50
2019-03-24T02:01:52.593Z,45.53
2019-03-24T02:04:21.016Z,44.70
2019-03-24T02:06:49.429Z,44.73
2019-03-24T02:09:18.229Z,46.53
2019-03-24T02:11:46.644Z,46.57
2019-03-24T02:14:15.078Z,44.23
2019-03-24T02:16:43.497Z,44.67
2019-03-24T02:19:11.925Z,43.27
2019-03-24T02:21:40.348Z,45.33
2019-03-24T02:24:08.780Z,44.43
2019-03-24T02:26:37.197Z,45.73
2019-03-24T02:29:05.945Z,43.30
2019-03-24T02:31:34.360Z,46.47
2019-03-24T02:34:02.796Z,47.03
2019-03-24T02:36:31.216Z,45.70
2019-03-24T02:38:59.642Z,47.83
2019-03-24T02:41:28.065Z,44.00
2019-03-24T02:43:56.498Z,45.67
2019-03-24T02:46:25.240Z,42.77
2019-03-24T02:48:54.214Z,43.90
2019-03-24T02:51:22.630Z,42.40
2019-03-24T02:53:51.077Z,42.93
2019-03-24T02:56:19.669Z,41.03
2019-03-24T02:58:48.093Z,43.77
2019-03-24T03:01:16.511Z,44.30
2019-03-24T03:03:44.943Z,43.23
2019-03-24T03:06:13.355Z,44.10
2019-03-24T03:08:41.783Z,43.30
2019-03-24T03:11:10.201Z,43.63
2019-03-24T03:13:38.633Z,44.13
2019-03-24T03:16:07.141Z,44.73
2019-03-24T03:18:35.581Z,44.47
2019-03-24T03:21:04.081Z,44.90
2019-03-24T03:23:32.505Z,42.60
2019-03-24T03:26:00.939Z,42.97
2019-03-24T03:28:29.367Z,39.97
2019-03-24T03:30:57.794Z,41.07
2019-03-24T03:33:26.226Z,39.13
2019-03-24T03:35:54.643Z,38.20
2019-03-24T03:38:23.082Z,41.17
2019-03-24T03:40:51.491Z,42.90
2019-03-24T03:43:20.179Z,42.63
2019-03-24T03:45:48.629Z,42.23
2019-03-24T03:48:17.062Z,42.63
2019-03-24T03:50:45.481Z,43.93
2019-03-24T03:53:13.946Z,43.27
2019-03-24T03:55:42.445Z,44.00
2019-03-24T03:58:10.862Z,42.13
2019-03-24T04:00:39.963Z,42.93
2019-03-24T04:03:08.461Z,44.43
2019-03-24T04:05:37.228Z,40.07
2019-03-24T04:08:05.787Z,40.80
2019-03-24T04:10:34.590Z,40.83
2019-03-24T04:13:03.004Z,41.00
2019-03-24T04:15:31.424Z,44.23
2019-03-24T04:17:59.845Z,45.53
2019-03-24T04:20:28.279Z,44.67
2019-03-24T04:22:56.706Z,47.27
2019-03-24T04:25:25.146Z,49.83
2019-03-24T04:27:53.566Z,47.03
2019-03-24T04:30:21.989Z,47.40
2019-03-24T04:32:50.430Z,50.17
2019-03-24T04:35:18.869Z,50.03
2019-03-24T04:37:47.581Z,48.23
2019-03-24T04:40:16.072Z,44.67
2019-03-24T04:42:44.856Z,45.37
2019-03-24T04:45:13.420Z,42.47
2019-03-24T04:47:41.836Z,42.87
2019-03-24T04:50:10.601Z,41.83
2019-03-24T04:52:39.013Z,42.17
2019-03-24T04:55:07.980Z,42.20
2019-03-24T04:57:36.393Z,41.50
2019-03-24T05:00:07.601Z,41.03
2019-03-24T05:02:36.018Z,40.67
2019-03-24T05:05:06.676Z,40.80
2019-03-24T05:07:35.171Z,44.27
2019-03-24T05:10:05.545Z,44.17
2019-03-24T05:12:33.971Z,42.80
2019-03-24T05:15:02.405Z,44.97
2019-03-24T05:17:31.171Z,43.47
2019-03-24T05:19:59.592Z,44.70
2019-03-24T05:22:28.339Z,43.83
2019-03-24T05:24:57.018Z,45.27
2019-03-24T05:27:25.441Z,41.07
2019-03-24T05:29:53.945Z,42.60
2019-03-24T05:32:22.369Z,42.20
2019-03-24T05:34:50.792Z,40.03
2019-03-24T05:37:19.242Z,42.73
2019-03-24T05:39:48.008Z,35.90
2019-03-24T05:42:16.433Z,36.60
2019-03-24T05:44:44.857Z,40.43
2019-03-24T05:47:13.282Z,40.03
2019-03-24T05:49:41.969Z,41.17
2019-03-24T05:52:10.389Z,41.97
2019-03-24T05:54:38.808Z,40.57
2019-03-24T05:57:07.482Z,46.37
2019-03-24T05:59:35.896Z,47.47
2019-03-24T06:02:04.334Z,50.00
2019-03-24T06:04:32.757Z,48.57
2019-03-24T06:07:01.186Z,49.03
2019-03-24T06:09:29.611Z,49.70
2019-03-24T06:11:58.032Z,47.80
2019-03-24T06:14:26.748Z,45.87
2019-03-24T06:16:55.181Z,44.60
2019-03-24T06:19:23.594Z,43.60
2019-03-24T06:21:52.042Z,44.87
2019-03-24T06:24:20.466Z,44.50
2019-03-24T06:26:48.892Z,43.43
2019-03-24T06:29:17.386Z,42.40
2019-03-24T06:31:45.810Z,43.53
2019-03-24T06:34:14.228Z,41.97
2019-03-24T06:36:42.654Z,41.97
2019-03-24T06:39:11.070Z,42.17
2019-03-24T06:41:39.497Z,41.70
2019-03-24T06:44:08.221Z,40.57
2019-03-24T06:46:36.648Z,40.67
2019-03-24T06:49:05.073Z,41.73
2019-03-24T06:51:33.759Z,41.93
2019-03-24T06:54:02.181Z,42.03
2019-03-24T06:56:30.608Z,43.53
2019-03-24T06:58:59.027Z,44.23
2019-03-24T07:01:27.448Z,44.40
2019-03-24T07:03:55.869Z,44.50
2019-03-24T07:06:24.297Z,45.83
2019-03-24T07:08:52.718Z,45.60
2019-03-24T07:11:21.405Z,44.90
2019-03-24T07:13:49.817Z,44.23
2019-03-24T07:16:18.585Z,45.23
2019-03-24T07:18:47.141Z,46.33
2019-03-24T07:21:15.845Z,48.20
2019-03-24T07:23:44.266Z,47.03
2019-03-24T07:26:12.701Z,47.57
2019-03-24T07:28:41.127Z,48.57
2019-03-24T07:31:09.544Z,49.40
2019-03-24T07:33:37.965Z,47.13
2019-03-24T07:36:06.396Z,47.63
2019-03-24T07:38:34.822Z,51.07
2019-03-24T07:41:03.249Z,48.40
2019-03-24T07:43:31.673Z,49.23
2019-03-24T07:46:00.097Z,48.90
2019-03-24T07:48:28.525Z,47.97
2019-03-24T07:50:57.206Z,48.30
2019-03-24T07:53:25.633Z,48.67
2019-03-24T07:55:54.045Z,45.63
2019-03-24T07:58:22.468Z,50.97
2019-03-24T08:00:50.889Z,48.87
2019-03-24T08:03:19.613Z,47.07
2019-03-24T08:05:48.027Z,46.37
2019-03-24T08:08:16.460Z,49.37
2019-03-24T08:10:44.881Z,49.77
2019-03-24T08:13:13.639Z,50.97
2019-03-24T08:15:42.058Z,51.57
2019-03-24T08:18:10.821Z,51.03
2019-03-24T08:20:39.241Z,51.57
2019-03-24T08:23:07.677Z,50.70
2019-03-24T08:25:36.100Z,52.23
2019-03-24T08:28:04.526Z,52.20
2019-03-24T08:30:34.485Z,52.70
2019-03-24T08:33:02.978Z,52.40
2019-03-24T08:35:31.396Z,50.37
2019-03-24T08:37:59.820Z,50.43
2019-03-24T08:40:28.243Z,50.07
2019-03-24T08:42:56.668Z,49.80
2019-03-24T08:45:29.289Z,50.93
2019-03-24T08:47:58.456Z,48.87
2019-03-24T08:50:27.517Z,51.20
2019-03-24T08:52:56.118Z,49.70
2019-03-24T08:55:24.890Z,51.87
2019-03-24T08:57:53.312Z,51.70
2019-03-24T09:00:30.177Z,51.40
2019-03-24T09:02:51.956Z,51.80
2019-03-24T09:05:20.371Z,48.77
2019-03-24T09:07:48.801Z,51.40
2019-03-24T09:10:17.533Z,53.90
2019-03-24T09:12:45.969Z,52.00
2019-03-24T09:15:14.621Z,50.93
2019-03-24T09:17:43.113Z,51.97
2019-03-24T09:20:11.778Z,54.30
2019-03-24T09:22:40.240Z,50.73
2019-03-24T09:25:08.972Z,51.33
2019-03-24T09:27:43.644Z,49.03
2019-03-24T09:30:29.461Z,51.40
2019-03-24T09:32:57.893Z,51.20
2019-03-24T09:35:26.320Z,52.30
2019-03-24T09:37:54.754Z,49.97
2019-03-24T09:40:34.106Z,51.33
2019-03-24T09:43:04.548Z,48.20
2019-03-24T09:45:33.209Z,50.60
2019-03-24T09:48:01.818Z,54.53
2019-03-24T09:50:30.473Z,49.77
2019-03-24T09:52:58.905Z,52.37
2019-03-24T09:55:27.325Z,48.47
2019-03-24T09:57:56.046Z,47.20
2019-03-24T10:00:24.469Z,51.93
2019-03-24T10:02:53.208Z,53.00
2019-03-24T10:05:21.635Z,48.30
2019-03-24T10:07:50.060Z,61.90
2019-03-24T10:10:18.482Z,51.97
2019-03-24T10:12:47.234Z,90.27
2019-03-24T10:15:15.669Z,60.57
2019-03-24T10:17:44.629Z,50.90
2019-03-24T10:20:13.329Z,52.17
2019-03-24T10:22:41.749Z,42.63
2019-03-24T10:25:10.842Z,42.97
2019-03-24T10:27:39.260Z,39.10
2019-03-24T10:30:08.721Z,55.00
2019-03-24T10:32:37.146Z,42.97
2019-03-24T10:35:07.014Z,41.87
2019-03-24T10:37:35.432Z,39.23
2019-03-24T10:40:05.000Z,41.40
2019-03-24T10:42:33.421Z,41.33
2019-03-24T10:45:01.844Z,42.27
2019-03-24T10:47:30.269Z,38.83
2019-03-24T10:49:58.957Z,41.63
2019-03-24T10:52:27.368Z,39.60
2019-03-24T10:54:55.802Z,40.40
2019-03-24T10:57:24.217Z,40.33
2019-03-24T10:59:52.641Z,42.30
2019-03-24T11:02:21.069Z,40.60
2019-03-24T11:04:49.493Z,40.30
2019-03-24T11:07:17.921Z,39.37
2019-03-24T11:09:46.349Z,39.67
2019-03-24T11:12:14.771Z,40.63
2019-03-24T11:14:43.198Z,40.57
2019-03-24T11:19:53.688Z,39.00
2019-03-24T11:22:22.110Z,39.13
2019-03-24T11:24:50.533Z,43.17
2019-03-24T11:27:19.289Z,43.47
2019-03-24T11:29:47.718Z,43.20
2019-03-24T11:32:16.149Z,42.40
2019-03-24T11:34:44.581Z,40.63
2019-03-24T11:37:32.661Z,40.23
2019-03-24T11:40:01.105Z,39.43
2019-03-24T11:42:29.537Z,38.53
2019-03-24T11:44:58.314Z,40.17
2019-03-24T11:47:29.792Z,37.53
2019-03-24T11:49:58.552Z,37.73
2019-03-24T11:52:26.967Z,35.77
2019-03-24T11:54:55.393Z,36.87
2019-03-24T11:57:23.829Z,36.50
2019-03-24T11:59:52.276Z,37.83
2019-03-24T12:02:20.692Z,43.43
2019-03-24T12:04:49.121Z,36.80
2019-03-24T12:07:17.542Z,36.77
2019-03-24T12:09:45.973Z,36.40
2019-03-24T12:12:14.393Z,36.23
2019-03-24T12:14:42.828Z,33.93
2019-03-24T12:17:11.259Z,36.50
2019-03-24T12:19:39.954Z,35.33
2019-03-24T12:22:08.706Z,32.07
2019-03-24T12:24:37.128Z,31.03
2019-03-24T12:27:05.569Z,32.40
2019-03-24T12:29:33.992Z,36.73
2019-03-24T12:32:02.487Z,34.77
2019-03-24T12:34:30.902Z,34.83
2019-03-24T12:36:59.325Z,35.47
2019-03-24T12:39:28.069Z,34.90
2019-03-24T12:41:56.506Z,37.47
2019-03-24T12:44:24.917Z,37.67
2019-03-24T12:46:53.354Z,39.13
2019-03-24T12:49:21.447Z,36.90
2019-03-24T12:51:50.214Z,36.80
2019-03-24T12:54:18.642Z,35.43
2019-03-24T12:56:47.116Z,37.03
2019-03-24T12:59:15.891Z,37.57
2019-03-24T13:01:44.654Z,35.60
2019-03-24T13:04:14.708Z,36.50
2019-03-24T13:06:44.699Z,37.07
2019-03-24T13:09:13.259Z,36.60
2019-03-24T13:19:02.721Z,36.60
2019-03-24T13:20:59.854Z,35.83
2019-03-24T13:23:27.956Z,35.47
2019-03-24T13:25:58.390Z,35.90
2019-03-24T13:28:26.818Z,36.67
2019-03-24T13:30:55.617Z,35.40
2019-03-24T13:33:24.110Z,35.50
2019-03-24T13:35:53.837Z,36.07
2019-03-24T13:38:22.279Z,36.70
2019-03-24T13:40:50.712Z,36.20
2019-03-24T13:43:19.239Z,37.97
2019-03-24T13:46:01.342Z,36.73
2019-03-24T13:48:30.062Z,36.13
2019-03-24T13:50:58.610Z,37.70
2019-03-24T13:53:26.860Z,38.03
2019-03-24T13:55:55.235Z,38.40
2019-03-24T13:58:23.755Z,35.67
2019-03-24T14:21:52.577Z,33.50
2019-03-24T14:24:20.997Z,37.83
2019-03-24T14:26:49.432Z,32.83
2019-03-24T14:29:18.192Z,36.90
2019-03-24T14:31:46.609Z,36.60
2019-03-24T14:34:15.082Z,36.90
2019-03-24T14:36:43.208Z,36.03
2019-03-24T14:39:11.742Z,34.83
2019-03-24T14:41:40.152Z,33.07
2019-03-24T14:44:08.270Z,32.80
2019-03-24T14:46:36.944Z,36.30
2019-03-24T14:49:05.037Z,33.07
2019-03-24T14:51:33.189Z,35.97
2019-03-24T14:54:01.640Z,33.27
2019-03-24T14:56:29.798Z,35.40
2019-03-24T14:58:57.989Z,36.97
2019-03-24T15:01:45.762Z,33.57
2019-03-24T15:04:14.192Z,34.57
2019-03-24T15:06:42.377Z,34.07
2019-03-24T15:09:10.809Z,34.33
2019-03-24T15:11:38.984Z,34.70
2019-03-24T15:14:07.489Z,35.03
2019-03-24T15:16:35.582Z,34.90
2019-03-24T15:19:04.402Z,34.93
2019-03-24T15:21:32.822Z,34.63
2019-03-24T15:24:00.917Z,35.23
2019-03-24T15:26:29.024Z,34.03
2019-03-24T15:28:57.520Z,34.50
2019-03-24T15:31:25.932Z,31.00
2019-03-24T15:33:54.401Z,31.87
2019-03-24T15:36:22.906Z,31.00
2019-03-24T15:38:51.413Z,33.17
2019-03-24T15:41:19.926Z,33.07
2019-03-24T15:43:49.462Z,31.97
2019-03-24T15:46:17.613Z,32.63
2019-03-24T15:48:45.767Z,33.40
2019-03-24T15:51:17.135Z,36.07
2019-03-24T15:53:43.690Z,31.93
2019-03-24T15:56:11.808Z,34.03
2019-03-24T15:58:39.904Z,34.50
2019-03-24T16:01:08.330Z,32.77
2019-03-24T16:03:36.760Z,33.70
2019-03-24T16:06:05.177Z,33.30
2019-03-24T16:08:33.745Z,35.03
2019-03-24T16:11:02.607Z,34.83
2019-03-24T16:13:31.197Z,34.43
2019-03-24T16:15:59.289Z,34.40
2019-03-24T16:18:27.383Z,33.77
2019-03-24T16:20:55.801Z,34.33
2019-03-24T16:23:24.000Z,33.73
2019-03-24T16:25:52.420Z,32.83
2019-03-24T16:28:20.908Z,33.47
2019-03-24T16:30:49.325Z,36.77
2019-03-24T16:33:17.752Z,36.77
2019-03-24T16:35:46.201Z,36.47
2019-03-24T16:38:14.693Z,35.93
2019-03-24T16:40:43.150Z,34.93
2019-03-24T16:43:11.847Z,36.43
2019-03-24T16:45:39.937Z,34.93
2019-03-24T16:48:08.352Z,35.90
2019-03-24T16:50:36.779Z,38.07
2019-03-24T16:53:05.206Z,41.70
2019-03-24T16:55:33.707Z,63.10
2019-03-24T16:58:21.152Z,52.37
2019-03-24T17:00:49.603Z,39.00
2019-03-24T17:03:18.077Z,37.03
2019-03-24T17:05:46.181Z,49.60
2019-03-24T17:08:14.885Z,39.80
2019-03-24T17:10:43.313Z,39.80
2019-03-24T17:13:11.744Z,40.03
2019-03-24T17:15:39.838Z,39.03
2019-03-24T17:18:08.331Z,40.33
2019-03-24T17:20:36.694Z,42.50
2019-03-24T17:23:04.839Z,42.53
2019-03-24T17:25:33.265Z,40.70
2019-03-24T17:28:02.043Z,40.90
2019-03-24T17:30:30.126Z,41.47
2019-03-24T17:32:58.540Z,45.17
2019-03-24T17:35:26.976Z,44.17
2019-03-24T17:37:55.098Z,42.43
2019-03-24T17:40:23.525Z,47.20
2019-03-24T17:42:51.951Z,39.83
2019-03-24T17:45:20.064Z,40.83
2019-03-24T17:47:48.865Z,41.17
2019-03-24T17:50:17.017Z,40.53
2019-03-24T17:52:45.104Z,40.60
2019-03-24T17:55:13.265Z,40.17
2019-03-24T17:57:42.062Z,40.47
2019-03-24T18:00:14.098Z,40.17
2019-03-24T18:02:42.905Z,41.40
2019-03-24T18:05:11.657Z,40.23
2019-03-24T18:07:39.740Z,39.73
2019-03-24T18:10:10.011Z,42.60
2019-03-24T18:12:38.431Z,44.90
2019-03-24T18:15:10.085Z,64.17
2019-03-24T18:17:38.184Z,54.13
2019-03-24T18:20:08.654Z,64.67
2019-03-24T18:22:37.104Z,45.20
2019-03-24T18:25:06.867Z,43.33
2019-03-24T18:27:35.277Z,42.60
2019-03-24T18:30:05.858Z,44.00
2019-03-24T18:32:34.338Z,46.13
2019-03-24T18:35:02.433Z,43.33
2019-03-24T18:37:30.849Z,44.17
2019-03-24T18:39:59.357Z,47.70
2019-03-24T18:42:28.146Z,44.20
2019-03-24T18:44:57.638Z,44.93
2019-03-24T18:47:26.055Z,46.80
2019-03-24T18:49:54.480Z,45.20
2019-03-24T18:52:23.123Z,39.63
2019-03-24T18:54:51.565Z,38.43
2019-03-24T18:57:19.656Z,42.07
2019-03-24T18:59:48.077Z,41.37
2019-03-24T19:02:16.516Z,46.87
2019-03-24T19:04:45.228Z,47.97
2019-03-24T19:07:14.009Z,41.53
2019-03-24T19:09:42.746Z,42.60
2019-03-24T19:12:11.193Z,41.90
2019-03-24T19:14:40.227Z,47.03
2019-03-24T19:17:10.166Z,50.87
2019-03-24T19:19:38.851Z,44.80
2019-03-24T19:22:07.296Z,47.33
2019-03-24T19:24:35.711Z,45.63
2019-03-24T19:27:04.201Z,43.30
2019-03-24T19:29:32.618Z,40.53
2019-03-24T19:32:01.062Z,40.30
2019-03-24T19:34:29.646Z,41.93
2019-03-24T19:36:58.092Z,42.10
2019-03-24T19:39:26.775Z,38.43
2019-03-24T19:41:55.205Z,39.80
2019-03-24T19:44:23.626Z,42.60
2019-03-24T19:46:51.725Z,43.33
2019-03-24T19:49:20.136Z,45.53
2019-03-24T19:51:48.568Z,47.67
2019-03-24T19:54:17.366Z,47.30
2019-03-24T19:56:45.460Z,46.80
2019-03-24T19:59:13.947Z,55.80
2019-03-24T20:01:42.383Z,44.90
2019-03-24T20:04:10.468Z,49.37
2019-03-24T20:06:38.566Z,47.73
2019-03-24T20:09:08.645Z,43.83
2019-03-24T20:11:37.081Z,43.47
2019-03-24T20:14:05.550Z,45.60
2019-03-24T20:16:33.976Z,44.70
2019-03-24T20:19:05.504Z,48.67
2019-03-24T20:21:33.929Z,45.13
2019-03-24T20:24:02.665Z,54.23
2019-03-24T20:26:31.096Z,65.60
2019-03-24T20:28:59.594Z,46.33
2019-03-24T20:31:28.014Z,45.13
2019-03-24T20:33:56.430Z,49.17
2019-03-24T20:36:24.857Z,46.10
2019-03-24T20:38:53.711Z,45.43
2019-03-24T20:41:21.873Z,44.90
2019-03-24T20:43:50.721Z,44.33
2019-03-24T20:46:18.821Z,47.03
2019-03-24T20:48:47.663Z,45.63
2019-03-24T20:51:15.824Z,48.37
2019-03-24T20:53:43.920Z,45.93
2019-03-24T20:56:12.001Z,47.73
2019-03-24T20:58:43.098Z,44.80
2019-03-24T21:01:11.523Z,46.07
2019-03-24T21:03:39.941Z,43.57
2019-03-24T21:06:08.030Z,46.10
2019-03-24T21:08:36.494Z,46.33
2019-03-24T21:11:04.907Z,50.53
2019-03-24T21:13:33.631Z,48.10
2019-03-24T21:16:02.057Z,68.77
2019-03-24T21:18:30.489Z,49.43
2019-03-24T21:20:58.906Z,44.50
2019-03-24T21:23:29.823Z,47.13
2019-03-24T21:25:57.259Z,49.47
2019-03-24T21:28:25.352Z,55.53
2019-03-24T21:30:53.770Z,46.63
2019-03-24T21:33:22.509Z,51.93
2019-03-24T21:35:50.916Z,44.90
2019-03-24T21:38:20.061Z,42.27
2019-03-24T21:40:48.619Z,42.67
2019-03-24T21:43:17.041Z,41.43
2019-03-24T21:45:45.127Z,41.73
2019-03-24T21:48:13.226Z,55.90
2019-03-24T21:50:41.306Z,42.03
2019-03-24T21:53:28.732Z,40.20
2019-03-24T21:55:56.812Z,43.83
2019-03-24T21:58:25.486Z,38.83
2019-03-24T22:00:53.572Z,37.03
2019-03-24T22:03:22.023Z,41.13
2019-03-24T22:05:50.509Z,38.33
2019-03-24T22:08:18.936Z,36.50
2019-03-24T22:10:47.636Z,35.23
2019-03-24T22:13:16.053Z,36.17
2019-03-24T22:15:44.540Z,35.77
2019-03-24T22:18:14.487Z,35.47
2019-03-24T22:20:48.834Z,34.40
2019-03-24T22:23:13.715Z,32.67
2019-03-24T22:25:42.051Z,30.93
2019-03-24T22:28:10.473Z,28.80
2019-03-24T22:30:38.604Z,26.70
2019-03-24T22:33:08.678Z,24.80
2019-03-24T22:35:36.759Z,26.27
2019-03-24T22:38:08.326Z,24.87
2019-03-24T22:40:36.416Z,24.50
2019-03-24T22:43:23.853Z,24.67
2019-03-24T22:45:52.292Z,23.17
2019-03-24T22:48:20.719Z,23.30
2019-03-24T22:50:48.811Z,23.10
2019-03-24T22:53:16.921Z,23.53
2019-03-24T22:55:45.350Z,23.73
2019-03-24T22:58:15.093Z,23.60
2019-03-24T23:00:47.899Z,23.40
2019-03-24T23:03:16.325Z,23.60
2019-03-24T23:05:44.753Z,22.60
2019-03-24T23:08:13.228Z,24.80
2019-03-24T23:10:41.640Z,23.97
2019-03-24T23:13:10.093Z,26.50
2019-03-24T23:15:38.510Z,25.47
2019-03-24T23:18:06.950Z,26.60
2019-03-24T23:20:35.036Z,24.73
2019-03-24T23:23:03.117Z,25.87
2019-03-24T23:25:31.578Z,26.33
2019-03-24T23:28:00.049Z,26.23
2019-03-24T23:30:28.474Z,28.03
2019-03-24T23:32:56.904Z,26.93
2019-03-24T23:35:25.321Z,27.80
2019-03-24T23:37:54.571Z,28.10
2019-03-24T23:40:24.167Z,28.57
2019-03-24T23:42:52.624Z,28.57
2019-03-24T23:45:21.065Z,29.10
2019-03-24T23:47:49.745Z,29.00
2019-03-24T23:50:18.168Z,28.57
2019-03-24T23:52:46.597Z,28.70
2019-03-24T23:55:15.017Z,29.03
2019-03-24T23:57:43.432Z,28.70
